sensor_id;sensor_type;location;lat;lon;timestamp;P1;durP1;ratioP1;P2;durP2;ratioP2
4614;SDS011;2320;51.362;6.946;2024-01-07T00:01:45;21.13;;;14.13;;
4614;SDS011;2320;51.362;6.946;2024-01-07T00:04:14;19.43;;;13.20;;
4614;SDS011;2320;51.362;6.946;2024-01-07T00:06:41;21.90;;;14.57;;
4614;SDS011;2320;51.362;6.946;2024-01-07T00:09:07;17.03;;;12.93;;
4614;SDS011;2320;51.362;6.946;2024-01-07T00:11:33;20.87;;;13.73;;
4614;SDS011;2320;51.362;6.946;2024-01-07T00:13:58;25.90;;;14.60;;
4614;SDS011;2320;51.362;6.946;2024-01-07T00:16:24;19.70;;;14.47;;
4614;SDS011;2320;51.362;6.946;2024-01-07T00:18:50;23.93;;;16.17;;
4614;SDS011;2320;51.362;6.946;2024-01-07T00:21:15;31.93;;;17.00;;
4614;SDS011;2320;51.362;6.946;2024-01-07T00:23:41;22.10;;;15.77;;
4614;SDS011;2320;51.362;6.946;2024-01-07T00:26:07;25.83;;;17.40;;
4614;SDS011;2320;51.362;6.946;2024-01-07T00:28:33;25.10;;;16.50;;
4614;SDS011;2320;51.362;6.946;2024-01-07T00:30:59;26.47;;;17.40;;
4614;SDS011;2320;51.362;6.946;2024-01-07T00:33:25;28.57;;;17.33;;
4614;SDS011;2320;51.362;6.946;2024-01-07T00:35:50;24.40;;;16.20;;
4614;SDS011;2320;51.362;6.946;2024-01-07T00:38:16;30.03;;;18.70;;
4614;SDS011;2320;51.362;6.946;2024-01-07T00:40:42;29.30;;;18.97;;
4614;SDS011;2320;51.362;6.946;2024-01-07T00:43:08;27.33;;;18.30;;
4614;SDS011;2320;51.362;6.946;2024-01-07T00:45:33;27.87;;;17.30;;
4614;SDS011;2320;51.362;6.946;2024-01-07T00:47:59;31.27;;;18.43;;
4614;SDS011;2320;51.362;6.946;2024-01-07T00:50:25;31.90;;;18.57;;
4614;SDS011;2320;51.362;6.946;2024-01-07T00:52:50;28.87;;;19.33;;
4614;SDS011;2320;51.362;6.946;2024-01-07T00:55:16;29.70;;;18.10;;
4614;SDS011;2320;51.362;6.946;2024-01-07T00:57:42;27.10;;;18.83;;
4614;SDS011;2320;51.362;6.946;2024-01-07T01:00:08;27.23;;;17.90;;
4614;SDS011;2320;51.362;6.946;2024-01-07T01:02:33;27.87;;;17.43;;
4614;SDS011;2320;51.362;6.946;2024-01-07T01:05:01;22.93;;;16.60;;
4614;SDS011;2320;51.362;6.946;2024-01-07T01:07:26;24.80;;;16.20;;
4614;SDS011;2320;51.362;6.946;2024-01-07T01:09:52;25.40;;;15.10;;
4614;SDS011;2320;51.362;6.946;2024-01-07T01:12:18;32.90;;;19.83;;
4614;SDS011;2320;51.362;6.946;2024-01-07T01:14:43;23.00;;;14.60;;
4614;SDS011;2320;51.362;6.946;2024-01-07T01:17:09;25.20;;;15.33;;
4614;SDS011;2320;51.362;6.946;2024-01-07T01:19:34;29.23;;;16.10;;
4614;SDS011;2320;51.362;6.946;2024-01-07T01:22:00;23.60;;;16.43;;
4614;SDS011;2320;51.362;6.946;2024-01-07T01:24:25;25.37;;;16.20;;
4614;SDS011;2320;51.362;6.946;2024-01-07T01:26:51;23.13;;;15.57;;
4614;SDS011;2320;51.362;6.946;2024-01-07T01:29:16;27.93;;;16.20;;
4614;SDS011;2320;51.362;6.946;2024-01-07T01:31:42;23.90;;;16.20;;
4614;SDS011;2320;51.362;6.946;2024-01-07T01:34:07;26.03;;;17.37;;
4614;SDS011;2320;51.362;6.946;2024-01-07T01:36:33;27.60;;;18.40;;
4614;SDS011;2320;51.362;6.946;2024-01-07T01:38:59;25.73;;;15.67;;
4614;SDS011;2320;51.362;6.946;2024-01-07T01:41:24;23.03;;;15.00;;
4614;SDS011;2320;51.362;6.946;2024-01-07T01:43:50;24.13;;;17.40;;
4614;SDS011;2320;51.362;6.946;2024-01-07T01:46:15;23.77;;;15.43;;
4614;SDS011;2320;51.362;6.946;2024-01-07T01:48:41;22.77;;;16.57;;
4614;SDS011;2320;51.362;6.946;2024-01-07T01:51:07;21.73;;;14.23;;
4614;SDS011;2320;51.362;6.946;2024-01-07T01:53:34;25.50;;;16.93;;
4614;SDS011;2320;51.362;6.946;2024-01-07T01:56:00;27.30;;;17.80;;
4614;SDS011;2320;51.362;6.946;2024-01-07T01:58:27;22.67;;;15.80;;
4614;SDS011;2320;51.362;6.946;2024-01-07T02:00:54;28.93;;;18.23;;
4614;SDS011;2320;51.362;6.946;2024-01-07T02:03:20;28.20;;;18.40;;
4614;SDS011;2320;51.362;6.946;2024-01-07T02:05:45;29.73;;;19.27;;
4614;SDS011;2320;51.362;6.946;2024-01-07T02:08:13;24.87;;;15.33;;
4614;SDS011;2320;51.362;6.946;2024-01-07T02:10:39;30.93;;;19.40;;
4614;SDS011;2320;51.362;6.946;2024-01-07T02:13:04;31.30;;;19.60;;
4614;SDS011;2320;51.362;6.946;2024-01-07T02:15:30;26.93;;;18.50;;
4614;SDS011;2320;51.362;6.946;2024-01-07T02:17:56;28.23;;;18.57;;
4614;SDS011;2320;51.362;6.946;2024-01-07T02:20:22;28.90;;;17.83;;
4614;SDS011;2320;51.362;6.946;2024-01-07T02:22:48;31.83;;;18.57;;
4614;SDS011;2320;51.362;6.946;2024-01-07T02:25:14;38.63;;;20.27;;
4614;SDS011;2320;51.362;6.946;2024-01-07T02:27:39;31.27;;;18.53;;
4614;SDS011;2320;51.362;6.946;2024-01-07T02:30:05;30.20;;;18.10;;
4614;SDS011;2320;51.362;6.946;2024-01-07T02:32:31;27.03;;;16.53;;
4614;SDS011;2320;51.362;6.946;2024-01-07T02:34:59;26.07;;;16.30;;
4614;SDS011;2320;51.362;6.946;2024-01-07T02:37:25;30.43;;;19.07;;
4614;SDS011;2320;51.362;6.946;2024-01-07T02:39:50;29.27;;;16.80;;
4614;SDS011;2320;51.362;6.946;2024-01-07T02:42:16;26.67;;;19.00;;
4614;SDS011;2320;51.362;6.946;2024-01-07T02:44:41;31.20;;;19.10;;
4614;SDS011;2320;51.362;6.946;2024-01-07T02:47:07;34.03;;;18.17;;
4614;SDS011;2320;51.362;6.946;2024-01-07T02:49:33;27.10;;;17.97;;
4614;SDS011;2320;51.362;6.946;2024-01-07T02:51:58;35.07;;;20.63;;
4614;SDS011;2320;51.362;6.946;2024-01-07T02:54:24;27.60;;;17.50;;
4614;SDS011;2320;51.362;6.946;2024-01-07T02:56:49;34.60;;;20.70;;
4614;SDS011;2320;51.362;6.946;2024-01-07T02:59:15;38.30;;;23.07;;
4614;SDS011;2320;51.362;6.946;2024-01-07T03:01:40;24.07;;;18.17;;
4614;SDS011;2320;51.362;6.946;2024-01-07T03:04:07;29.33;;;18.77;;
4614;SDS011;2320;51.362;6.946;2024-01-07T03:06:35;30.17;;;16.40;;
4614;SDS011;2320;51.362;6.946;2024-01-07T03:09:00;22.60;;;16.37;;
4614;SDS011;2320;51.362;6.946;2024-01-07T03:11:26;26.13;;;16.47;;
4614;SDS011;2320;51.362;6.946;2024-01-07T03:13:51;25.03;;;16.83;;
4614;SDS011;2320;51.362;6.946;2024-01-07T03:16:23;25.07;;;16.17;;
4614;SDS011;2320;51.362;6.946;2024-01-07T03:18:50;25.63;;;14.90;;
4614;SDS011;2320;51.362;6.946;2024-01-07T03:21:20;21.13;;;14.43;;
4614;SDS011;2320;51.362;6.946;2024-01-07T03:23:46;23.60;;;15.30;;
4614;SDS011;2320;51.362;6.946;2024-01-07T03:26:13;25.60;;;16.27;;
4614;SDS011;2320;51.362;6.946;2024-01-07T03:28:39;24.60;;;16.90;;
4614;SDS011;2320;51.362;6.946;2024-01-07T03:31:08;25.00;;;16.63;;
4614;SDS011;2320;51.362;6.946;2024-01-07T03:33:37;25.83;;;16.03;;
4614;SDS011;2320;51.362;6.946;2024-01-07T03:36:12;27.80;;;17.30;;
4614;SDS011;2320;51.362;6.946;2024-01-07T03:38:39;27.13;;;16.73;;
4614;SDS011;2320;51.362;6.946;2024-01-07T03:41:05;28.30;;;18.23;;
4614;SDS011;2320;51.362;6.946;2024-01-07T03:43:31;29.10;;;17.53;;
4614;SDS011;2320;51.362;6.946;2024-01-07T03:45:58;31.17;;;19.37;;
4614;SDS011;2320;51.362;6.946;2024-01-07T03:48:24;31.70;;;18.60;;
4614;SDS011;2320;51.362;6.946;2024-01-07T03:50:50;32.50;;;19.07;;
4614;SDS011;2320;51.362;6.946;2024-01-07T03:53:15;30.43;;;20.40;;
4614;SDS011;2320;51.362;6.946;2024-01-07T03:55:41;30.63;;;19.47;;
4614;SDS011;2320;51.362;6.946;2024-01-07T03:58:07;25.33;;;17.93;;
4614;SDS011;2320;51.362;6.946;2024-01-07T04:00:33;23.20;;;17.97;;
4614;SDS011;2320;51.362;6.946;2024-01-07T04:02:59;32.30;;;21.20;;
4614;SDS011;2320;51.362;6.946;2024-01-07T04:05:25;27.63;;;18.70;;
4614;SDS011;2320;51.362;6.946;2024-01-07T04:07:51;25.87;;;18.30;;
4614;SDS011;2320;51.362;6.946;2024-01-07T04:10:17;26.17;;;19.53;;
4614;SDS011;2320;51.362;6.946;2024-01-07T04:12:43;27.23;;;18.47;;
4614;SDS011;2320;51.362;6.946;2024-01-07T04:15:10;28.20;;;18.70;;
4614;SDS011;2320;51.362;6.946;2024-01-07T04:17:36;28.77;;;17.37;;
4614;SDS011;2320;51.362;6.946;2024-01-07T04:20:02;24.17;;;17.80;;
4614;SDS011;2320;51.362;6.946;2024-01-07T04:22:28;31.87;;;19.57;;
4614;SDS011;2320;51.362;6.946;2024-01-07T04:24:54;24.40;;;18.00;;
4614;SDS011;2320;51.362;6.946;2024-01-07T04:27:19;24.23;;;17.93;;
4614;SDS011;2320;51.362;6.946;2024-01-07T04:29:45;28.13;;;17.67;;
4614;SDS011;2320;51.362;6.946;2024-01-07T04:32:10;24.23;;;18.00;;
4614;SDS011;2320;51.362;6.946;2024-01-07T04:34:36;30.67;;;19.30;;
4614;SDS011;2320;51.362;6.946;2024-01-07T04:37:01;29.90;;;18.27;;
4614;SDS011;2320;51.362;6.946;2024-01-07T04:39:27;26.70;;;18.63;;
4614;SDS011;2320;51.362;6.946;2024-01-07T04:41:53;29.30;;;17.50;;
4614;SDS011;2320;51.362;6.946;2024-01-07T04:44:18;21.70;;;16.73;;
4614;SDS011;2320;51.362;6.946;2024-01-07T04:46:44;22.57;;;16.43;;
4614;SDS011;2320;51.362;6.946;2024-01-07T04:49:09;24.80;;;16.50;;
4614;SDS011;2320;51.362;6.946;2024-01-07T04:51:35;24.97;;;17.43;;
4614;SDS011;2320;51.362;6.946;2024-01-07T04:54:03;24.53;;;17.13;;
4614;SDS011;2320;51.362;6.946;2024-01-07T04:56:30;23.33;;;16.77;;
4614;SDS011;2320;51.362;6.946;2024-01-07T04:58:56;21.50;;;16.90;;
4614;SDS011;2320;51.362;6.946;2024-01-07T05:01:22;23.80;;;16.87;;
4614;SDS011;2320;51.362;6.946;2024-01-07T05:03:47;24.07;;;15.13;;
4614;SDS011;2320;51.362;6.946;2024-01-07T05:06:13;26.67;;;17.87;;
4614;SDS011;2320;51.362;6.946;2024-01-07T05:08:39;25.43;;;17.70;;
4614;SDS011;2320;51.362;6.946;2024-01-07T05:11:06;27.70;;;18.50;;
4614;SDS011;2320;51.362;6.946;2024-01-07T05:13:32;21.67;;;16.73;;
4614;SDS011;2320;51.362;6.946;2024-01-07T05:15:57;22.80;;;16.17;;
4614;SDS011;2320;51.362;6.946;2024-01-07T05:18:23;20.07;;;16.93;;
4614;SDS011;2320;51.362;6.946;2024-01-07T05:20:49;22.70;;;16.43;;
4614;SDS011;2320;51.362;6.946;2024-01-07T05:23:15;22.97;;;15.50;;
4614;SDS011;2320;51.362;6.946;2024-01-07T05:25:44;23.17;;;15.57;;
4614;SDS011;2320;51.362;6.946;2024-01-07T05:28:10;25.23;;;17.47;;
4614;SDS011;2320;51.362;6.946;2024-01-07T05:30:36;26.63;;;18.37;;
4614;SDS011;2320;51.362;6.946;2024-01-07T05:33:03;25.40;;;18.33;;
4614;SDS011;2320;51.362;6.946;2024-01-07T05:35:29;24.70;;;18.73;;
4614;SDS011;2320;51.362;6.946;2024-01-07T05:37:55;28.00;;;18.73;;
4614;SDS011;2320;51.362;6.946;2024-01-07T05:40:21;24.53;;;17.53;;
4614;SDS011;2320;51.362;6.946;2024-01-07T05:42:47;23.90;;;17.80;;
4614;SDS011;2320;51.362;6.946;2024-01-07T05:45:12;30.27;;;20.30;;
4614;SDS011;2320;51.362;6.946;2024-01-07T05:47:38;31.70;;;19.40;;
4614;SDS011;2320;51.362;6.946;2024-01-07T05:50:06;26.17;;;18.27;;
4614;SDS011;2320;51.362;6.946;2024-01-07T05:52:32;26.70;;;19.27;;
4614;SDS011;2320;51.362;6.946;2024-01-07T05:54:57;29.67;;;19.57;;
4614;SDS011;2320;51.362;6.946;2024-01-07T05:57:23;30.63;;;20.63;;
4614;SDS011;2320;51.362;6.946;2024-01-07T05:59:49;24.77;;;17.47;;
4614;SDS011;2320;51.362;6.946;2024-01-07T06:02:15;27.83;;;18.83;;
4614;SDS011;2320;51.362;6.946;2024-01-07T06:04:42;27.30;;;19.30;;
4614;SDS011;2320;51.362;6.946;2024-01-07T06:07:08;23.87;;;17.23;;
4614;SDS011;2320;51.362;6.946;2024-01-07T06:09:33;32.00;;;17.80;;
4614;SDS011;2320;51.362;6.946;2024-01-07T06:11:59;27.27;;;18.33;;
4614;SDS011;2320;51.362;6.946;2024-01-07T06:14:24;32.67;;;18.73;;
4614;SDS011;2320;51.362;6.946;2024-01-07T06:16:50;29.30;;;17.30;;
4614;SDS011;2320;51.362;6.946;2024-01-07T06:19:19;28.00;;;17.30;;
4614;SDS011;2320;51.362;6.946;2024-01-07T06:21:45;23.37;;;16.60;;
4614;SDS011;2320;51.362;6.946;2024-01-07T06:24:10;27.93;;;17.40;;
4614;SDS011;2320;51.362;6.946;2024-01-07T06:26:36;28.07;;;16.80;;
4614;SDS011;2320;51.362;6.946;2024-01-07T06:29:02;23.73;;;17.43;;
4614;SDS011;2320;51.362;6.946;2024-01-07T06:31:28;26.70;;;17.93;;
4614;SDS011;2320;51.362;6.946;2024-01-07T06:33:54;23.00;;;17.50;;
4614;SDS011;2320;51.362;6.946;2024-01-07T06:36:21;26.47;;;18.20;;
4614;SDS011;2320;51.362;6.946;2024-01-07T06:38:47;32.83;;;20.40;;
4614;SDS011;2320;51.362;6.946;2024-01-07T06:41:13;30.63;;;20.13;;
4614;SDS011;2320;51.362;6.946;2024-01-07T06:43:39;22.90;;;17.07;;
4614;SDS011;2320;51.362;6.946;2024-01-07T06:46:05;27.20;;;18.93;;
4614;SDS011;2320;51.362;6.946;2024-01-07T06:48:30;27.90;;;19.07;;
4614;SDS011;2320;51.362;6.946;2024-01-07T06:50:57;27.43;;;18.00;;
4614;SDS011;2320;51.362;6.946;2024-01-07T06:53:22;24.50;;;17.77;;
4614;SDS011;2320;51.362;6.946;2024-01-07T06:55:48;32.53;;;19.77;;
4614;SDS011;2320;51.362;6.946;2024-01-07T06:58:14;24.60;;;17.63;;
4614;SDS011;2320;51.362;6.946;2024-01-07T07:00:39;25.37;;;17.37;;
4614;SDS011;2320;51.362;6.946;2024-01-07T07:03:05;31.00;;;19.50;;
4614;SDS011;2320;51.362;6.946;2024-01-07T07:05:31;30.07;;;20.53;;
4614;SDS011;2320;51.362;6.946;2024-01-07T07:07:57;31.50;;;18.80;;
4614;SDS011;2320;51.362;6.946;2024-01-07T07:10:22;31.17;;;18.73;;
4614;SDS011;2320;51.362;6.946;2024-01-07T07:12:48;27.93;;;18.00;;
4614;SDS011;2320;51.362;6.946;2024-01-07T07:15:15;29.87;;;20.63;;
4614;SDS011;2320;51.362;6.946;2024-01-07T07:17:41;33.13;;;22.33;;
4614;SDS011;2320;51.362;6.946;2024-01-07T07:20:07;28.83;;;18.63;;
4614;SDS011;2320;51.362;6.946;2024-01-07T07:22:33;31.43;;;19.73;;
4614;SDS011;2320;51.362;6.946;2024-01-07T07:24:58;30.77;;;20.37;;
4614;SDS011;2320;51.362;6.946;2024-01-07T07:27:24;27.90;;;18.67;;
4614;SDS011;2320;51.362;6.946;2024-01-07T07:29:50;33.67;;;20.30;;
4614;SDS011;2320;51.362;6.946;2024-01-07T07:32:15;38.57;;;23.23;;
4614;SDS011;2320;51.362;6.946;2024-01-07T07:34:41;32.70;;;20.73;;
4614;SDS011;2320;51.362;6.946;2024-01-07T07:37:06;32.77;;;20.53;;
4614;SDS011;2320;51.362;6.946;2024-01-07T07:39:32;32.20;;;20.93;;
4614;SDS011;2320;51.362;6.946;2024-01-07T07:41:57;35.70;;;20.40;;
4614;SDS011;2320;51.362;6.946;2024-01-07T07:44:23;33.13;;;19.20;;
4614;SDS011;2320;51.362;6.946;2024-01-07T07:46:48;30.93;;;19.87;;
4614;SDS011;2320;51.362;6.946;2024-01-07T07:49:15;32.87;;;23.30;;
4614;SDS011;2320;51.362;6.946;2024-01-07T07:51:41;31.33;;;22.20;;
4614;SDS011;2320;51.362;6.946;2024-01-07T07:54:08;37.73;;;20.00;;
4614;SDS011;2320;51.362;6.946;2024-01-07T07:56:33;31.53;;;18.80;;
4614;SDS011;2320;51.362;6.946;2024-01-07T07:59:00;32.33;;;20.73;;
4614;SDS011;2320;51.362;6.946;2024-01-07T08:01:26;27.47;;;17.57;;
4614;SDS011;2320;51.362;6.946;2024-01-07T08:03:52;28.13;;;19.20;;
4614;SDS011;2320;51.362;6.946;2024-01-07T08:06:17;23.73;;;16.37;;
4614;SDS011;2320;51.362;6.946;2024-01-07T08:08:43;26.13;;;17.40;;
4614;SDS011;2320;51.362;6.946;2024-01-07T08:11:09;27.37;;;17.83;;
4614;SDS011;2320;51.362;6.946;2024-01-07T08:13:35;26.93;;;17.17;;
4614;SDS011;2320;51.362;6.946;2024-01-07T08:16:01;23.10;;;16.90;;
4614;SDS011;2320;51.362;6.946;2024-01-07T08:18:26;24.50;;;14.70;;
4614;SDS011;2320;51.362;6.946;2024-01-07T08:20:52;22.47;;;16.43;;
4614;SDS011;2320;51.362;6.946;2024-01-07T08:23:18;18.70;;;14.20;;
4614;SDS011;2320;51.362;6.946;2024-01-07T08:25:43;22.20;;;13.47;;
4614;SDS011;2320;51.362;6.946;2024-01-07T08:28:10;22.40;;;14.37;;
4614;SDS011;2320;51.362;6.946;2024-01-07T08:30:36;19.50;;;14.47;;
4614;SDS011;2320;51.362;6.946;2024-01-07T08:33:02;18.33;;;13.80;;
4614;SDS011;2320;51.362;6.946;2024-01-07T08:35:27;17.40;;;13.33;;
4614;SDS011;2320;51.362;6.946;2024-01-07T08:37:53;20.53;;;16.40;;
4614;SDS011;2320;51.362;6.946;2024-01-07T08:40:18;24.97;;;15.93;;
4614;SDS011;2320;51.362;6.946;2024-01-07T08:42:44;22.27;;;15.70;;
4614;SDS011;2320;51.362;6.946;2024-01-07T08:45:10;21.70;;;13.77;;
4614;SDS011;2320;51.362;6.946;2024-01-07T08:47:36;24.83;;;15.30;;
4614;SDS011;2320;51.362;6.946;2024-01-07T08:50:02;20.20;;;15.13;;
4614;SDS011;2320;51.362;6.946;2024-01-07T08:52:28;22.43;;;13.90;;
4614;SDS011;2320;51.362;6.946;2024-01-07T08:54:54;22.00;;;15.50;;
4614;SDS011;2320;51.362;6.946;2024-01-07T08:57:20;22.37;;;14.87;;
4614;SDS011;2320;51.362;6.946;2024-01-07T08:59:46;19.73;;;13.87;;
4614;SDS011;2320;51.362;6.946;2024-01-07T09:02:11;21.93;;;14.53;;
4614;SDS011;2320;51.362;6.946;2024-01-07T09:04:38;20.57;;;14.27;;
4614;SDS011;2320;51.362;6.946;2024-01-07T09:07:04;21.33;;;13.13;;
4614;SDS011;2320;51.362;6.946;2024-01-07T09:09:29;17.67;;;13.00;;
4614;SDS011;2320;51.362;6.946;2024-01-07T09:11:55;19.10;;;13.87;;
4614;SDS011;2320;51.362;6.946;2024-01-07T09:14:22;18.03;;;13.90;;
4614;SDS011;2320;51.362;6.946;2024-01-07T09:16:50;21.13;;;14.33;;
4614;SDS011;2320;51.362;6.946;2024-01-07T09:19:15;25.40;;;15.10;;
4614;SDS011;2320;51.362;6.946;2024-01-07T09:21:42;19.60;;;14.07;;
4614;SDS011;2320;51.362;6.946;2024-01-07T09:24:08;21.60;;;12.80;;
4614;SDS011;2320;51.362;6.946;2024-01-07T09:26:34;21.50;;;14.80;;
4614;SDS011;2320;51.362;6.946;2024-01-07T09:28:59;20.90;;;15.23;;
4614;SDS011;2320;51.362;6.946;2024-01-07T09:31:26;24.20;;;14.33;;
4614;SDS011;2320;51.362;6.946;2024-01-07T09:33:52;19.43;;;14.23;;
4614;SDS011;2320;51.362;6.946;2024-01-07T09:36:17;21.23;;;14.33;;
4614;SDS011;2320;51.362;6.946;2024-01-07T09:38:43;18.07;;;14.57;;
4614;SDS011;2320;51.362;6.946;2024-01-07T09:41:09;21.50;;;16.13;;
4614;SDS011;2320;51.362;6.946;2024-01-07T09:43:35;20.57;;;15.63;;
4614;SDS011;2320;51.362;6.946;2024-01-07T09:46:01;17.70;;;14.40;;
4614;SDS011;2320;51.362;6.946;2024-01-07T09:48:28;22.27;;;13.07;;
4614;SDS011;2320;51.362;6.946;2024-01-07T09:50:53;17.83;;;13.13;;
4614;SDS011;2320;51.362;6.946;2024-01-07T09:53:21;16.50;;;13.67;;
4614;SDS011;2320;51.362;6.946;2024-01-07T09:56:00;20.47;;;14.83;;
4614;SDS011;2320;51.362;6.946;2024-01-07T09:58:48;20.27;;;15.27;;
4614;SDS011;2320;51.362;6.946;2024-01-07T10:01:15;18.03;;;13.30;;
4614;SDS011;2320;51.362;6.946;2024-01-07T10:03:44;15.27;;;12.27;;
4614;SDS011;2320;51.362;6.946;2024-01-07T10:06:12;19.70;;;15.13;;
4614;SDS011;2320;51.362;6.946;2024-01-07T10:08:38;22.13;;;14.53;;
4614;SDS011;2320;51.362;6.946;2024-01-07T10:11:04;20.77;;;16.30;;
4614;SDS011;2320;51.362;6.946;2024-01-07T10:13:30;18.20;;;13.50;;
4614;SDS011;2320;51.362;6.946;2024-01-07T10:15:57;18.37;;;14.43;;
4614;SDS011;2320;51.362;6.946;2024-01-07T10:18:22;16.27;;;13.17;;
4614;SDS011;2320;51.362;6.946;2024-01-07T10:20:48;12.97;;;11.57;;
4614;SDS011;2320;51.362;6.946;2024-01-07T10:23:20;15.27;;;12.77;;
4614;SDS011;2320;51.362;6.946;2024-01-07T10:25:45;20.40;;;13.30;;
4614;SDS011;2320;51.362;6.946;2024-01-07T10:28:12;15.97;;;11.70;;
4614;SDS011;2320;51.362;6.946;2024-01-07T10:30:39;15.27;;;12.00;;
4614;SDS011;2320;51.362;6.946;2024-01-07T10:33:05;14.77;;;10.30;;
4614;SDS011;2320;51.362;6.946;2024-01-07T10:35:33;18.03;;;13.47;;
4614;SDS011;2320;51.362;6.946;2024-01-07T10:38:00;17.80;;;12.20;;
4614;SDS011;2320;51.362;6.946;2024-01-07T10:40:26;16.90;;;12.37;;
4614;SDS011;2320;51.362;6.946;2024-01-07T10:42:54;17.33;;;12.73;;
4614;SDS011;2320;51.362;6.946;2024-01-07T10:45:20;16.60;;;12.77;;
4614;SDS011;2320;51.362;6.946;2024-01-07T10:47:50;16.20;;;12.40;;
4614;SDS011;2320;51.362;6.946;2024-01-07T10:50:19;22.20;;;12.90;;
4614;SDS011;2320;51.362;6.946;2024-01-07T10:52:49;21.37;;;12.00;;
4614;SDS011;2320;51.362;6.946;2024-01-07T10:55:17;15.30;;;12.90;;
4614;SDS011;2320;51.362;6.946;2024-01-07T10:57:44;16.53;;;12.57;;
4614;SDS011;2320;51.362;6.946;2024-01-07T11:00:14;16.40;;;12.03;;
4614;SDS011;2320;51.362;6.946;2024-01-07T11:05:44;15.90;;;13.83;;
4614;SDS011;2320;51.362;6.946;2024-01-07T11:08:28;17.37;;;13.17;;
4614;SDS011;2320;51.362;6.946;2024-01-07T11:11:09;18.47;;;13.47;;
4614;SDS011;2320;51.362;6.946;2024-01-07T11:13:39;19.63;;;13.63;;
4614;SDS011;2320;51.362;6.946;2024-01-07T11:16:05;20.40;;;13.07;;
4614;SDS011;2320;51.362;6.946;2024-01-07T11:18:37;16.60;;;12.07;;
4614;SDS011;2320;51.362;6.946;2024-01-07T11:21:22;17.10;;;12.53;;
4614;SDS011;2320;51.362;6.946;2024-01-07T11:23:49;16.97;;;11.83;;
4614;SDS011;2320;51.362;6.946;2024-01-07T11:26:17;13.80;;;11.67;;
4614;SDS011;2320;51.362;6.946;2024-01-07T11:31:13;18.37;;;10.63;;
4614;SDS011;2320;51.362;6.946;2024-01-07T11:33:41;13.93;;;10.77;;
4614;SDS011;2320;51.362;6.946;2024-01-07T11:36:10;13.80;;;10.00;;
4614;SDS011;2320;51.362;6.946;2024-01-07T11:38:36;10.60;;;8.47;;
4614;SDS011;2320;51.362;6.946;2024-01-07T11:41:04;12.80;;;9.27;;
4614;SDS011;2320;51.362;6.946;2024-01-07T11:43:31;10.20;;;8.13;;
4614;SDS011;2320;51.362;6.946;2024-01-07T11:45:58;10.97;;;8.43;;
4614;SDS011;2320;51.362;6.946;2024-01-07T11:48:24;8.77;;;7.97;;
4614;SDS011;2320;51.362;6.946;2024-01-07T11:50:50;9.30;;;8.40;;
4614;SDS011;2320;51.362;6.946;2024-01-07T11:53:15;8.73;;;7.80;;
4614;SDS011;2320;51.362;6.946;2024-01-07T11:55:41;15.57;;;10.27;;
4614;SDS011;2320;51.362;6.946;2024-01-07T11:58:07;12.63;;;8.40;;
4614;SDS011;2320;51.362;6.946;2024-01-07T12:00:33;8.90;;;7.37;;
4614;SDS011;2320;51.362;6.946;2024-01-07T12:02:59;8.57;;;7.70;;
4614;SDS011;2320;51.362;6.946;2024-01-07T12:05:26;10.43;;;9.43;;
4614;SDS011;2320;51.362;6.946;2024-01-07T12:07:53;9.60;;;7.57;;
4614;SDS011;2320;51.362;6.946;2024-01-07T12:10:19;11.13;;;8.03;;
4614;SDS011;2320;51.362;6.946;2024-01-07T12:12:44;8.17;;;7.23;;
4614;SDS011;2320;51.362;6.946;2024-01-07T12:15:12;8.33;;;7.30;;
4614;SDS011;2320;51.362;6.946;2024-01-07T12:17:38;11.37;;;7.07;;
4614;SDS011;2320;51.362;6.946;2024-01-07T12:20:04;10.27;;;7.40;;
4614;SDS011;2320;51.362;6.946;2024-01-07T12:22:32;11.73;;;7.00;;
4614;SDS011;2320;51.362;6.946;2024-01-07T12:25:04;7.60;;;6.53;;
4614;SDS011;2320;51.362;6.946;2024-01-07T12:27:31;6.03;;;5.43;;
4614;SDS011;2320;51.362;6.946;2024-01-07T12:29:57;7.17;;;6.50;;
4614;SDS011;2320;51.362;6.946;2024-01-07T12:32:25;8.50;;;6.40;;
4614;SDS011;2320;51.362;6.946;2024-01-07T12:34:51;9.20;;;6.20;;
4614;SDS011;2320;51.362;6.946;2024-01-07T12:37:17;8.73;;;6.43;;
4614;SDS011;2320;51.362;6.946;2024-01-07T12:39:43;5.53;;;5.00;;
4614;SDS011;2320;51.362;6.946;2024-01-07T12:42:08;9.13;;;6.10;;
4614;SDS011;2320;51.362;6.946;2024-01-07T12:44:36;7.77;;;5.43;;
4614;SDS011;2320;51.362;6.946;2024-01-07T12:47:02;4.97;;;4.47;;
4614;SDS011;2320;51.362;6.946;2024-01-07T12:49:28;6.93;;;4.33;;
4614;SDS011;2320;51.362;6.946;2024-01-07T12:51:54;4.97;;;4.40;;
4614;SDS011;2320;51.362;6.946;2024-01-07T12:54:19;6.40;;;4.50;;
4614;SDS011;2320;51.362;6.946;2024-01-07T12:56:46;11.30;;;5.70;;
4614;SDS011;2320;51.362;6.946;2024-01-07T12:59:12;7.17;;;5.13;;
4614;SDS011;2320;51.362;6.946;2024-01-07T13:01:37;6.30;;;5.70;;
4614;SDS011;2320;51.362;6.946;2024-01-07T13:04:04;16.30;;;5.50;;
4614;SDS011;2320;51.362;6.946;2024-01-07T13:06:30;5.63;;;4.10;;
4614;SDS011;2320;51.362;6.946;2024-01-07T13:08:55;8.63;;;5.70;;
4614;SDS011;2320;51.362;6.946;2024-01-07T13:11:21;5.40;;;4.80;;
4614;SDS011;2320;51.362;6.946;2024-01-07T13:13:46;6.50;;;5.33;;
4614;SDS011;2320;51.362;6.946;2024-01-07T13:16:12;7.53;;;4.97;;
4614;SDS011;2320;51.362;6.946;2024-01-07T13:18:38;7.50;;;4.97;;
4614;SDS011;2320;51.362;6.946;2024-01-07T13:21:03;6.30;;;4.70;;
4614;SDS011;2320;51.362;6.946;2024-01-07T13:23:31;5.00;;;4.53;;
4614;SDS011;2320;51.362;6.946;2024-01-07T13:25:57;4.90;;;4.43;;
4614;SDS011;2320;51.362;6.946;2024-01-07T13:28:23;7.33;;;5.00;;
4614;SDS011;2320;51.362;6.946;2024-01-07T13:30:49;4.93;;;4.00;;
4614;SDS011;2320;51.362;6.946;2024-01-07T13:33:14;5.20;;;4.70;;
4614;SDS011;2320;51.362;6.946;2024-01-07T13:35:42;5.13;;;4.47;;
4614;SDS011;2320;51.362;6.946;2024-01-07T13:38:08;4.93;;;4.23;;
4614;SDS011;2320;51.362;6.946;2024-01-07T13:40:34;5.43;;;4.90;;
4614;SDS011;2320;51.362;6.946;2024-01-07T13:43:00;6.13;;;5.30;;
4614;SDS011;2320;51.362;6.946;2024-01-07T13:45:26;9.50;;;5.40;;
4614;SDS011;2320;51.362;6.946;2024-01-07T13:47:51;4.77;;;4.23;;
4614;SDS011;2320;51.362;6.946;2024-01-07T13:50:17;6.77;;;5.10;;
4614;SDS011;2320;51.362;6.946;2024-01-07T13:52:43;5.73;;;4.10;;
4614;SDS011;2320;51.362;6.946;2024-01-07T13:55:08;5.20;;;3.60;;
4614;SDS011;2320;51.362;6.946;2024-01-07T13:57:35;4.40;;;4.00;;
4614;SDS011;2320;51.362;6.946;2024-01-07T14:00:00;4.47;;;3.20;;
4614;SDS011;2320;51.362;6.946;2024-01-07T14:02:32;4.00;;;3.70;;
4614;SDS011;2320;51.362;6.946;2024-01-07T14:04:58;4.67;;;3.67;;
4614;SDS011;2320;51.362;6.946;2024-01-07T14:07:24;7.10;;;4.27;;
4614;SDS011;2320;51.362;6.946;2024-01-07T14:09:51;5.00;;;4.00;;
4614;SDS011;2320;51.362;6.946;2024-01-07T14:12:17;3.50;;;3.20;;
4614;SDS011;2320;51.362;6.946;2024-01-07T14:14:42;4.50;;;3.90;;
4614;SDS011;2320;51.362;6.946;2024-01-07T14:17:08;4.43;;;3.87;;
4614;SDS011;2320;51.362;6.946;2024-01-07T14:19:33;4.23;;;3.83;;
4614;SDS011;2320;51.362;6.946;2024-01-07T14:21:59;4.30;;;3.87;;
4614;SDS011;2320;51.362;6.946;2024-01-07T14:24:25;4.87;;;4.20;;
4614;SDS011;2320;51.362;6.946;2024-01-07T14:26:51;6.37;;;3.90;;
4614;SDS011;2320;51.362;6.946;2024-01-07T14:29:17;9.00;;;4.00;;
4614;SDS011;2320;51.362;6.946;2024-01-07T14:31:42;4.40;;;3.73;;
4614;SDS011;2320;51.362;6.946;2024-01-07T14:34:08;4.40;;;4.00;;
4614;SDS011;2320;51.362;6.946;2024-01-07T14:36:33;3.70;;;3.17;;
4614;SDS011;2320;51.362;6.946;2024-01-07T14:38:59;6.60;;;3.90;;
4614;SDS011;2320;51.362;6.946;2024-01-07T14:41:25;7.23;;;4.20;;
4614;SDS011;2320;51.362;6.946;2024-01-07T14:43:50;5.93;;;3.90;;
4614;SDS011;2320;51.362;6.946;2024-01-07T14:46:16;4.90;;;3.80;;
4614;SDS011;2320;51.362;6.946;2024-01-07T14:48:41;8.13;;;3.23;;
4614;SDS011;2320;51.362;6.946;2024-01-07T14:51:07;3.70;;;3.00;;
4614;SDS011;2320;51.362;6.946;2024-01-07T14:53:32;3.80;;;3.20;;